Saint Francis, Maine
Current Conditions -  °F | °C
As of 11:53 AM on Monday 22 Dec 2014 (Local Time) from KFVE Reporting Station
Overcast Overcast  
Wind Chill: 21°   Ceiling: 1400
Heat Index: 21°   Visibility: 10mi
Dew Point: 19°   Wind: 0mph
Humidity: 92%   Direction: NA
Pressure: 30.36"   Gusts: NA
Location:  47.17°N, 68.89°W
Report Text: KFVE 221653Z AUTO 00000KT 10SM OVC014 M06/M07 A3036 RMK AO2 SLP298 T10611072
Loading
Personal Weather Stations






























Interactive Weather Map New forecast layout! Learn more

10-Day Weather Forecast

Advertisements
Track Severe Weather on mobile